createdAt,value
2022-12-26T00:01:52.744Z,20.85
2022-12-26T00:04:51.844Z,19.25
2022-12-26T00:06:54.353Z,19.50
2022-12-26T00:09:23.883Z,19.55
2022-12-26T00:11:53.449Z,18.92
2022-12-26T00:14:22.892Z,17.92
2022-12-26T00:16:52.919Z,19.00
2022-12-26T00:19:22.376Z,19.37
2022-12-26T00:21:52.497Z,19.12
2022-12-26T00:24:21.927Z,17.75
2022-12-26T00:26:51.354Z,17.65
2022-12-26T00:29:20.873Z,20.35
2022-12-26T00:31:50.485Z,19.20
2022-12-26T00:34:19.994Z,19.02
2022-12-26T00:36:51.695Z,17.47
2022-12-26T00:39:21.163Z,18.50
2022-12-26T00:41:50.580Z,17.73
2022-12-26T00:44:20.246Z,17.92
2022-12-26T00:46:49.752Z,17.07
2022-12-26T00:49:19.207Z,21.37
2022-12-26T00:51:48.988Z,20.68
2022-12-26T00:54:18.495Z,21.62
2022-12-26T00:56:48.015Z,23.12
2022-12-26T00:59:17.647Z,22.65
2022-12-26T01:01:47.466Z,22.55
2022-12-26T01:04:17.515Z,23.98
2022-12-26T01:06:46.938Z,25.40
2022-12-26T01:09:16.366Z,22.93
2022-12-26T01:11:46.419Z,22.62
2022-12-26T01:14:18.312Z,22.02
2022-12-26T01:16:48.596Z,19.40
2022-12-26T01:19:18.298Z,19.50
2022-12-26T01:21:47.722Z,19.57
2022-12-26T01:24:17.203Z,18.05
2022-12-26T01:26:46.986Z,18.10
2022-12-26T01:29:16.430Z,18.62
2022-12-26T01:31:46.233Z,17.25
2022-12-26T01:34:15.798Z,17.57
2022-12-26T01:36:45.203Z,16.75
2022-12-26T01:39:14.732Z,16.42
2022-12-26T01:41:44.632Z,16.73
2022-12-26T01:44:50.574Z,15.90
2022-12-26T01:47:22.136Z,16.42
2022-12-26T01:49:55.119Z,15.63
2022-12-26T01:52:33.596Z,14.53
2022-12-26T01:55:04.563Z,13.62
2022-12-26T01:57:42.622Z,13.72
2022-12-26T02:00:14.025Z,13.30
2022-12-26T02:03:02.462Z,13.22
2022-12-26T02:05:36.165Z,13.65
2022-12-26T02:08:11.598Z,14.43
2022-12-26T02:10:46.780Z,12.58
2022-12-26T02:13:17.953Z,12.70
2022-12-26T02:15:48.374Z,14.50
2022-12-26T02:18:18.627Z,13.25
2022-12-26T02:20:51.122Z,13.58
2022-12-26T02:23:26.763Z,13.10
2022-12-26T02:26:15.657Z,12.75
2022-12-26T02:29:06.680Z,13.68
2022-12-26T02:32:01.742Z,12.85
2022-12-26T02:34:57.243Z,13.22
2022-12-26T02:37:50.853Z,12.30
2022-12-26T02:40:39.066Z,12.63
2022-12-26T02:43:11.762Z,12.33
2022-12-26T02:46:11.392Z,11.88
2022-12-26T02:48:48.462Z,12.33
2022-12-26T02:51:42.120Z,11.97
2022-12-26T02:54:59.393Z,12.47
2022-12-26T02:57:53.101Z,12.65
2022-12-26T03:00:41.320Z,11.88
2022-12-26T03:03:37.985Z,11.90
2022-12-26T03:06:40.702Z,12.13
2022-12-26T03:09:43.307Z,10.72
2022-12-26T03:13:00.557Z,11.85
2022-12-26T03:15:37.185Z,11.80
2022-12-26T03:18:10.388Z,11.73
2022-12-26T03:20:40.552Z,10.48
2022-12-26T03:26:13.581Z,12.33
2022-12-26T03:39:15.061Z,11.97
2022-12-26T03:42:08.747Z,12.25
2022-12-26T03:45:01.962Z,12.03
2022-12-26T03:50:57.371Z,11.80
2022-12-26T03:54:05.968Z,11.00
2022-12-26T03:56:56.555Z,12.30
2022-12-26T03:59:51.461Z,12.73
2022-12-26T04:02:40.167Z,12.45
2022-12-26T04:05:29.980Z,12.20
2022-12-26T04:08:20.263Z,11.45
2022-12-26T04:11:10.276Z,12.03
2022-12-26T04:14:24.971Z,12.80
2022-12-26T04:17:33.412Z,12.37
2022-12-26T04:23:10.137Z,11.85
2022-12-26T04:26:02.962Z,12.23
2022-12-26T04:31:40.253Z,11.73
2022-12-26T04:34:31.449Z,12.40
2022-12-26T04:37:22.166Z,12.20
2022-12-26T04:40:12.641Z,11.27
2022-12-26T04:43:50.390Z,11.78
2022-12-26T04:45:36.812Z,11.68
2022-12-26T04:48:24.975Z,12.45
2022-12-26T04:50:55.496Z,12.00
2022-12-26T04:53:24.991Z,11.83
2022-12-26T04:55:54.511Z,11.12
2022-12-26T04:58:25.985Z,12.25
2022-12-26T05:00:57.140Z,10.55
2022-12-26T05:03:44.583Z,11.22
2022-12-26T05:06:32.266Z,11.70
2022-12-26T05:09:19.773Z,11.50
2022-12-26T05:11:49.197Z,11.35
2022-12-26T05:14:18.838Z,12.20
2022-12-26T05:17:06.134Z,11.03
2022-12-26T05:22:42.609Z,11.80
2022-12-26T05:25:33.088Z,12.35
2022-12-26T05:30:50.313Z,13.43
2022-12-26T05:33:38.788Z,15.70
2022-12-26T05:38:38.705Z,13.53
2022-12-26T05:41:08.233Z,15.30
2022-12-26T05:43:37.733Z,15.40
2022-12-26T05:46:07.567Z,14.10
2022-12-26T05:48:37.075Z,13.53
2022-12-26T05:51:06.997Z,12.13
2022-12-26T05:53:36.685Z,10.65
2022-12-26T05:56:07.566Z,12.35
2022-12-26T05:58:37.541Z,11.60
2022-12-26T06:03:36.859Z,11.25
2022-12-26T06:06:08.357Z,12.40
2022-12-26T06:08:38.556Z,11.20
2022-12-26T06:11:11.119Z,12.43
2022-12-26T06:13:41.768Z,10.90
2022-12-26T06:16:14.494Z,14.53
2022-12-26T06:18:44.998Z,12.43
2022-12-26T06:21:17.538Z,17.23
2022-12-26T06:23:47.124Z,16.45
2022-12-26T06:26:17.855Z,14.95
2022-12-26T06:28:47.905Z,13.22
2022-12-26T06:31:21.567Z,13.00
2022-12-26T06:33:53.815Z,14.07
2022-12-26T06:36:25.930Z,13.10
2022-12-26T06:38:57.138Z,12.37
2022-12-26T06:41:27.582Z,13.88
2022-12-26T06:43:57.101Z,14.63
2022-12-26T06:46:27.032Z,13.05
2022-12-26T06:48:56.492Z,12.18
2022-12-26T06:51:28.986Z,12.40
2022-12-26T06:54:02.623Z,13.58
2022-12-26T06:56:34.560Z,12.30
2022-12-26T07:01:36.359Z,12.40
2022-12-26T07:04:06.231Z,11.90
2022-12-26T07:06:37.473Z,11.73
2022-12-26T07:09:11.084Z,13.05
2022-12-26T07:11:43.559Z,12.28
2022-12-26T07:16:44.753Z,10.93
2022-12-26T07:19:16.412Z,12.93
2022-12-26T07:21:46.041Z,13.40
2022-12-26T07:24:17.890Z,12.53
2022-12-26T07:26:48.542Z,11.60
2022-12-26T07:29:18.696Z,12.90
2022-12-26T07:31:48.346Z,12.60
2022-12-26T07:34:17.952Z,12.13
2022-12-26T07:36:47.517Z,12.63
2022-12-26T07:39:16.993Z,13.00
2022-12-26T07:41:58.433Z,12.63
2022-12-26T07:44:30.299Z,12.25
2022-12-26T07:47:01.166Z,11.97
2022-12-26T07:49:30.686Z,12.73
2022-12-26T07:52:00.121Z,12.27
2022-12-26T07:54:30.513Z,12.90
2022-12-26T07:57:22.009Z,12.45
2022-12-26T07:59:31.123Z,13.30
2022-12-26T08:02:02.634Z,12.73
2022-12-26T08:04:33.581Z,12.58
2022-12-26T08:07:03.005Z,12.47
2022-12-26T08:09:32.523Z,12.70
2022-12-26T08:12:02.386Z,11.88
2022-12-26T08:14:31.888Z,11.85
2022-12-26T08:17:01.429Z,14.93
2022-12-26T08:19:31.021Z,14.07
2022-12-26T08:22:00.428Z,13.08
2022-12-26T08:24:30.576Z,12.15
2022-12-26T08:27:00.187Z,13.00
2022-12-26T08:29:30.321Z,12.10
2022-12-26T08:31:59.978Z,12.65
2022-12-26T08:34:34.566Z,12.53
2022-12-26T08:37:04.810Z,12.73
2022-12-26T08:39:34.434Z,13.70
2022-12-26T08:42:04.144Z,12.65
2022-12-26T08:44:33.595Z,14.00
2022-12-26T08:47:03.099Z,14.13
2022-12-26T08:49:32.838Z,14.07
2022-12-26T08:52:02.255Z,13.57
2022-12-26T08:54:32.476Z,13.70
2022-12-26T08:57:01.981Z,12.80
2022-12-26T08:59:31.425Z,12.40
2022-12-26T09:02:01.396Z,13.20
2022-12-26T09:04:31.603Z,14.35
2022-12-26T09:07:01.194Z,13.77
2022-12-26T09:09:31.620Z,13.70
2022-12-26T09:12:01.055Z,13.03
2022-12-26T09:14:30.616Z,12.73
2022-12-26T09:17:00.157Z,13.03
2022-12-26T09:19:32.977Z,12.23
2022-12-26T09:22:20.640Z,13.60
2022-12-26T09:24:50.592Z,12.95
2022-12-26T09:27:21.376Z,12.15
2022-12-26T09:32:12.344Z,14.15
2022-12-26T09:34:42.217Z,14.18
2022-12-26T09:39:41.459Z,13.40
2022-12-26T09:42:26.224Z,13.43
2022-12-26T09:45:17.553Z,15.40
2022-12-26T09:48:18.825Z,13.18
2022-12-26T09:50:51.576Z,13.15
2022-12-26T09:53:37.535Z,12.90
2022-12-26T09:56:36.967Z,9.98
2022-12-26T09:58:59.582Z,11.40
2022-12-26T10:01:34.028Z,10.28
2022-12-26T10:04:09.552Z,8.43
2022-12-26T10:06:44.524Z,9.18
2022-12-26T10:09:36.544Z,10.05
2022-12-26T10:12:11.160Z,10.10
2022-12-26T10:15:14.049Z,9.90
2022-12-26T10:17:46.608Z,9.90
2022-12-26T10:20:28.072Z,10.23
2022-12-26T10:23:09.625Z,10.10
2022-12-26T10:25:47.689Z,10.72
2022-12-26T10:28:45.068Z,10.80
2022-12-26T10:31:35.919Z,11.12
2022-12-26T10:34:20.223Z,11.65
2022-12-26T10:36:53.903Z,11.25
2022-12-26T10:41:56.575Z,10.55
2022-12-26T10:47:17.191Z,10.98
2022-12-26T10:49:49.744Z,11.53
2022-12-26T10:52:21.883Z,10.30
2022-12-26T10:55:28.447Z,10.53
2022-12-26T10:57:31.990Z,10.90
2022-12-26T11:00:07.446Z,11.15
2022-12-26T11:02:37.119Z,12.43
2022-12-26T11:05:33.146Z,12.18
2022-12-26T11:07:51.509Z,10.65
2022-12-26T11:10:23.914Z,11.65
2022-12-26T11:12:59.204Z,10.55
2022-12-26T11:15:32.294Z,10.63
2022-12-26T11:20:38.064Z,11.18
2022-12-26T11:23:30.852Z,11.73
2022-12-26T11:26:03.233Z,10.75
2022-12-26T11:28:37.878Z,10.53
2022-12-26T11:31:10.357Z,8.58
2022-12-26T11:33:47.348Z,8.93
2022-12-26T11:36:22.869Z,10.20
2022-12-26T11:39:02.605Z,8.90
2022-12-26T11:41:42.297Z,8.90
2022-12-26T11:44:26.695Z,8.30
